Guanghua, China
Current Conditions -  °F | °C
As of 6:00 AM on Tuesday 23 Dec 2014 (Local Time) from ZHHH Reporting Station
Haze Haze  
Wind Chill: 32°   Ceiling: Unl
Heat Index: 36°   Visibility: 3mi
Dew Point: 27°   Wind: 4mph
Humidity: 70%   Direction: 80°E
Pressure: 30.21"   Gusts: NA
Location:  32.38°N, 111.67°E
Report Text: ZHHH 222200Z 08002MPS 5000 HZ NSC 02/M03 Q1023 NOSIG
Loading
Personal Weather Stations






























Interactive Weather Map New forecast layout! Learn more

10-Day Weather Forecast

Advertisements
Track Severe Weather on mobile